Time;durP1;ratioP1;P1;durP2;ratioP2;P2;SDS_P1;SDS_P2;PMS_P1;PMS_P2;Temp;Humidity;BMP_temperature;BMP_pressure;BME280_temperature;BME280_humidity;BME280_pressure;Samples;Min_cycle;Max_cycle;Signal;HPM_P1;HPM_P2
2020/12/17 00:00:23;;;;;;;;;;;;;;;17.72;62.55;101982.25;5016808;28;1579;-46
2020/12/17 00:02:48;;;;;;;;;;;;;;;17.72;62.77;101984.06;5017261;28;794;-46
2020/12/17 00:05:14;;;;;;;;;;;;;;;17.72;62.98;101987.59;5017264;28;1540;-46
2020/12/17 00:07:39;;;;;;;;;;;;;;;17.69;63.18;101985.97;5017003;28;1106;-46
2020/12/17 00:10:05;;;;;;;;;;;;;;;17.70;62.62;101981.47;5016766;28;1902;-46
2020/12/17 00:12:35;;;;;;;;;;;;;;;17.67;62.80;101984.38;5016647;28;1351;-46
2020/12/17 00:15:00;;;;;;;;;;;;;;;17.67;62.44;101987.03;5016422;28;1540;-47
2020/12/17 00:17:25;;;;;;;;;;;;;;;17.64;62.69;101985.41;5017022;28;821;-46
2020/12/17 00:19:50;;;;;;;;;;;;;;;17.64;62.41;101993.41;5016912;28;1603;-46
2020/12/17 00:22:16;;;;;;;;;;;;;;;17.64;62.65;102003.28;5016890;28;845;-46
2020/12/17 00:24:41;;;;;;;;;;;;;;;17.65;63.50;102002.34;5016824;28;846;-47
2020/12/17 00:27:06;;;;;;;;;;;;;;;17.65;63.61;101994.31;5016536;28;845;-46
2020/12/17 00:29:31;;;;;;;;;;;;;;;17.65;64.02;101999.66;5016145;28;1894;-46
2020/12/17 00:31:56;;;;;;;;;;;;;;;17.64;63.01;101997.91;5016573;28;1748;-46
2020/12/17 00:34:22;;;;;;;;;;;;;;;17.60;63.18;102002.59;5016444;28;984;-46
2020/12/17 00:36:51;;;;;;;;;;;;;;;17.61;63.26;102003.47;5016342;28;1336;-46
2020/12/17 00:39:16;;;;;;;;;;;;;;;17.61;63.14;102004.34;5016304;28;1016;-47
2020/12/17 00:41:41;;;;;;;;;;;;;;;17.58;63.48;102006.34;5016618;28;799;-46
2020/12/17 00:44:06;;;;;;;;;;;;;;;17.57;63.14;101999.28;5016341;28;1480;-47
2020/12/17 00:46:31;;;;;;;;;;;;;;;17.55;63.34;102002.03;5015951;28;1531;-46
2020/12/17 00:48:57;;;;;;;;;;;;;;;17.53;62.66;101989.69;5016410;28;1882;-46
2020/12/17 00:51:22;;;;;;;;;;;;;;;17.56;63.13;101990.38;5016119;28;817;-46
2020/12/17 00:53:47;;;;;;;;;;;;;;;17.55;62.46;101995.81;5016090;28;872;-47
2020/12/17 00:56:12;;;;;;;;;;;;;;;17.56;62.19;101984.16;5015957;28;907;-46
2020/12/17 00:58:38;;;;;;;;;;;;;;;17.57;62.96;101996.59;5015870;28;1677;-46
2020/12/17 01:01:21;;;;;;;;;;;;;;;17.56;62.41;101990.38;5014430;28;1567;-46
2020/12/17 01:03:47;;;;;;;;;;;;;;;17.56;62.27;101986.84;5015933;28;868;-46
2020/12/17 01:06:12;;;;;;;;;;;;;;;17.57;62.02;101985.91;5015765;28;915;-46
2020/12/17 01:08:37;;;;;;;;;;;;;;;17.57;63.09;101988.59;5015590;28;1906;-46
2020/12/17 01:11:03;;;;;;;;;;;;;;;17.57;62.29;101991.25;5015683;28;1424;-46
2020/12/17 01:13:28;;;;;;;;;;;;;;;17.55;62.77;101982.44;5017026;28;1619;-46
2020/12/17 01:15:53;;;;;;;;;;;;;;;17.56;62.80;101992.19;5015534;28;877;-46
2020/12/17 01:18:18;;;;;;;;;;;;;;;17.52;61.78;101978.16;5015595;28;897;-46
2020/12/17 01:20:44;;;;;;;;;;;;;;;17.52;62.52;101990.66;5015308;28;904;-46
2020/12/17 01:23:10;;;;;;;;;;;;;;;17.51;62.20;101992.50;5015853;28;817;-46
2020/12/17 01:25:35;;;;;;;;;;;;;;;17.50;62.66;101980.91;5015593;28;1683;-46
2020/12/17 01:28:00;;;;;;;;;;;;;;;17.47;62.20;101981.13;5015441;28;1962;-46
2020/12/17 01:30:26;;;;;;;;;;;;;;;17.46;62.51;101990.09;5015357;28;846;-46
2020/12/17 01:32:54;;;;;;;;;;;;;;;17.45;61.34;101996.41;5015599;28;858;-45
2020/12/17 01:35:20;;;;;;;;;;;;;;;17.45;62.39;101983.03;5015152;28;917;-46
2020/12/17 01:37:45;;;;;;;;;;;;;;;17.44;62.08;101985.78;5015278;28;1571;-46
2020/12/17 01:40:10;;;;;;;;;;;;;;;17.44;62.12;101983.13;5015437;28;1607;-46
2020/12/17 01:42:36;;;;;;;;;;;;;;;17.42;62.15;101993.06;5015381;28;873;-46
2020/12/17 01:45:01;;;;;;;;;;;;;;;17.44;61.78;101988.47;5015050;28;802;-46
2020/12/17 01:47:32;;;;;;;;;;;;;;;17.44;62.06;101997.34;5015019;28;1516;-46
2020/12/17 01:49:57;;;;;;;;;;;;;;;17.41;61.58;101992.19;5014963;28;1890;-46
2020/12/17 01:52:22;;;;;;;;;;;;;;;17.38;61.96;101976.34;5015052;28;1488;-46
2020/12/17 01:54:56;;;;;;;;;;;;;;;17.39;61.25;101994.13;5014894;28;1513;-46
2020/12/17 01:57:22;;;;;;;;;;;;;;;17.36;61.38;101978.25;5014836;28;1211;-46
2020/12/17 01:59:48;;;;;;;;;;;;;;;17.39;62.19;101974.50;5014863;28;814;-46
2020/12/17 02:02:17;;;;;;;;;;;;;;;17.37;62.13;101979.09;5015032;28;857;-46
2020/12/17 02:04:44;;;;;;;;;;;;;;;17.35;62.29;101976.53;5015004;28;790;-46
2020/12/17 02:07:09;;;;;;;;;;;;;;;17.38;61.04;101980.84;5014604;28;1659;-46
2020/12/17 02:09:35;;;;;;;;;;;;;;;17.37;61.62;101979.09;5014890;28;1918;-46
2020/12/17 02:12:00;;;;;;;;;;;;;;;17.35;61.91;101973.88;5014038;28;1548;-46
2020/12/17 02:14:26;;;;;;;;;;;;;;;17.38;60.96;101981.69;5013881;28;1034;-46
2020/12/17 02:16:52;;;;;;;;;;;;;;;17.39;61.90;101975.41;5014428;28;947;-46
2020/12/17 02:19:17;;;;;;;;;;;;;;;17.39;61.33;101983.41;5014566;28;786;-46
2020/12/17 02:21:42;;;;;;;;;;;;;;;17.39;61.65;101978.06;5014177;28;1492;-46
2020/12/17 02:24:08;;;;;;;;;;;;;;;17.41;61.79;101980.66;5014688;28;854;-46
2020/12/17 02:26:33;;;;;;;;;;;;;;;17.39;62.08;101967.38;5014425;28;1512;-46
2020/12/17 02:28:58;;;;;;;;;;;;;;;17.40;61.43;101979.78;5014509;28;1965;-46
2020/12/17 02:31:27;;;;;;;;;;;;;;;17.36;61.82;101978.25;5014287;28;822;-46
2020/12/17 02:33:52;;;;;;;;;;;;;;;17.36;61.16;101977.41;5014568;28;896;-46
2020/12/17 02:36:18;;;;;;;;;;;;;;;17.34;61.71;101976.63;5014217;28;1548;-46
2020/12/17 02:38:43;;;;;;;;;;;;;;;17.34;61.34;101979.31;5014030;28;1525;-46
2020/12/17 02:41:09;;;;;;;;;;;;;;;17.32;61.78;101976.72;5014018;28;908;-46
2020/12/17 02:43:34;;;;;;;;;;;;;;;17.32;61.19;101981.22;5014364;28;848;-46
2020/12/17 02:45:59;;;;;;;;;;;;;;;17.32;60.68;101987.41;5014228;28;865;-46
2020/12/17 02:48:24;;;;;;;;;;;;;;;17.28;61.02;101981.38;5014315;28;1886;-46
2020/12/17 02:50:50;;;;;;;;;;;;;;;17.29;61.70;101985.78;5013927;28;1607;-46
2020/12/17 02:53:15;;;;;;;;;;;;;;;17.28;60.67;101986.75;5013927;28;1508;-46
2020/12/17 02:55:40;;;;;;;;;;;;;;;17.26;61.04;101977.94;5014221;28;845;-46
2020/12/17 02:58:05;;;;;;;;;;;;;;;17.30;60.63;102005.38;5014219;28;872;-46
2020/12/17 03:00:31;;;;;;;;;;;;;;;17.27;60.66;101986.84;5013996;28;806;-46
2020/12/17 03:02:56;;;;;;;;;;;;;;;17.28;61.47;101994.75;5013818;28;884;-46
2020/12/17 03:05:21;;;;;;;;;;;;;;;17.26;60.91;101995.81;5013815;28;1500;-46
2020/12/17 03:07:46;;;;;;;;;;;;;;;17.26;61.47;102012.72;5013670;28;1576;-46
2020/12/17 03:10:15;;;;;;;;;;;;;;;17.25;61.16;102016.34;5013807;28;1906;-46
2020/12/17 03:12:41;;;;;;;;;;;;;;;17.24;61.04;102017.28;5013619;28;1337;-46
2020/12/17 03:15:06;;;;;;;;;;;;;;;17.23;60.96;102002.22;5013750;28;913;-46
2020/12/17 03:17:31;;;;;;;;;;;;;;;17.24;60.71;102003.06;5013607;28;1011;-46
2020/12/17 03:19:57;;;;;;;;;;;;;;;17.22;61.51;102013.84;5014187;28;1513;-46
2020/12/17 03:22:22;;;;;;;;;;;;;;;17.24;60.88;102008.41;5014181;28;1520;-46
2020/12/17 03:24:47;;;;;;;;;;;;;;;17.21;60.18;102016.59;5015149;28;1752;-46
2020/12/17 03:27:12;;;;;;;;;;;;;;;17.25;60.48;102007.47;5017966;28;826;-46
2020/12/17 03:29:37;;;;;;;;;;;;;;;17.25;61.33;102018.16;5017829;28;1960;-46
2020/12/17 03:32:03;;;;;;;;;;;;;;;17.25;60.24;102013.69;5018015;28;1645;-45
2020/12/17 03:34:29;;;;;;;;;;;;;;;17.28;61.16;102020.63;5017668;28;837;-46
2020/12/17 03:36:54;;;;;;;;;;;;;;;17.25;60.52;102012.81;5017750;28;1559;-46
2020/12/17 03:39:20;;;;;;;;;;;;;;;17.30;61.30;102016.06;5017308;28;1761;-46
2020/12/17 03:41:45;;;;;;;;;;;;;;;17.29;60.58;102019.69;5017354;28;853;-46
2020/12/17 03:44:10;;;;;;;;;;;;;;;17.26;59.87;102020.72;5017798;28;865;-46
2020/12/17 03:46:35;;;;;;;;;;;;;;;17.26;60.48;102025.22;5017295;28;896;-46
2020/12/17 03:49:02;;;;;;;;;;;;;;;17.22;61.17;102018.34;5017467;28;1945;-46
2020/12/17 03:51:27;;;;;;;;;;;;;;;17.27;60.47;102021.59;5017438;28;1634;-46
2020/12/17 03:53:52;;;;;;;;;;;;;;;17.26;60.03;102014.53;5016891;28;1633;-46
2020/12/17 03:56:18;;;;;;;;;;;;;;;17.23;60.36;102020.03;5017450;28;877;-46
2020/12/17 03:58:43;;;;;;;;;;;;;;;17.23;59.72;102030.75;5017078;28;904;-46
2020/12/17 04:01:08;;;;;;;;;;;;;;;17.18;59.59;102019.47;5017036;28;897;-46
2020/12/17 04:03:33;;;;;;;;;;;;;;;17.08;61.48;102014.69;5016957;28;908;-46
2020/12/17 04:05:59;;;;;;;;;;;;;;;16.98;64.26;102016.19;5016972;28;1584;-46
2020/12/17 04:08:24;;;;;;;;;;;;;;;16.93;63.85;102028.09;5016392;28;1906;-46
2020/12/17 04:10:49;;;;;;;;;;;;;;;16.86;64.53;102028.47;5016894;28;968;-46
2020/12/17 04:13:14;;;;;;;;;;;;;;;16.85;65.43;102026.75;5016655;28;1474;-45
2020/12/17 04:15:39;;;;;;;;;;;;;;;16.87;65.00;102032.00;5017089;28;830;-46
2020/12/17 04:18:05;;;;;;;;;;;;;;;16.85;65.57;102020.53;5016916;28;849;-46
2020/12/17 04:20:30;;;;;;;;;;;;;;;16.79;65.53;102016.41;5028337;28;1757;-45
2020/12/17 04:22:55;;;;;;;;;;;;;;;16.77;65.79;102014.75;5027613;28;1775;-46
2020/12/17 04:25:21;;;;;;;;;;;;;;;16.75;64.84;102017.53;5016886;28;801;-45
2020/12/17 04:27:46;;;;;;;;;;;;;;;16.74;65.82;102026.50;5016868;28;877;-46
2020/12/17 04:30:12;;;;;;;;;;;;;;;16.74;66.12;102026.50;5016708;28;1898;-46
2020/12/17 04:32:37;;;;;;;;;;;;;;;16.72;66.46;102024.88;5016535;28;1655;-46
2020/12/17 04:35:02;;;;;;;;;;;;;;;16.74;65.25;102022.97;5016659;28;1719;-46
2020/12/17 04:37:27;;;;;;;;;;;;;;;16.70;65.34;102023.13;5016008;28;778;-46
2020/12/17 04:39:53;;;;;;;;;;;;;;;16.67;66.65;102034.00;5015738;28;1642;-46
2020/12/17 04:42:19;;;;;;;;;;;;;;;16.68;65.60;102024.19;5016213;28;1663;-46
2020/12/17 04:44:45;;;;;;;;;;;;;;;16.65;65.68;102035.91;5016388;28;992;-46
2020/12/17 04:47:12;;;;;;;;;;;;;;;16.65;65.59;102035.91;5015896;28;1480;-46
2020/12/17 04:49:41;;;;;;;;;;;;;;;16.65;65.93;102041.25;5015990;28;1889;-46
2020/12/17 04:52:07;;;;;;;;;;;;;;;16.66;67.21;102037.63;5016398;28;830;-46
2020/12/17 04:54:32;;;;;;;;;;;;;;;16.66;66.45;102037.63;5015974;28;874;-46
2020/12/17 04:57:11;;;;;;;;;;;;;;;16.64;66.24;102044.88;5016479;28;1474;-46
2020/12/17 04:59:39;;;;;;;;;;;;;;;16.66;66.13;102042.97;5015920;28;904;-46
2020/12/17 05:02:05;;;;;;;;;;;;;;;16.64;66.71;102049.34;5016074;28;1504;-46
2020/12/17 05:04:32;;;;;;;;;;;;;;;16.64;65.75;102044.00;5016114;28;854;-46
2020/12/17 05:06:57;;;;;;;;;;;;;;;16.64;65.41;102041.34;5015922;28;1569;-46
2020/12/17 05:09:22;;;;;;;;;;;;;;;16.62;65.69;102040.56;5015573;28;1902;-46
2020/12/17 05:11:48;;;;;;;;;;;;;;;16.62;66.67;102046.75;5015656;28;1415;-46
2020/12/17 05:14:13;;;;;;;;;;;;;;;16.61;65.87;102038.84;5015949;28;790;-47
2020/12/17 05:16:39;;;;;;;;;;;;;;;16.60;65.80;102056.66;5015118;28;1619;-46
2020/12/17 05:19:04;;;;;;;;;;;;;;;16.56;66.38;102044.44;5015190;28;1613;-46
2020/12/17 05:21:29;;;;;;;;;;;;;;;16.56;66.52;102046.25;5014786;28;1071;-46
2020/12/17 05:23:54;;;;;;;;;;;;;;;16.52;66.92;102042.91;5015474;28;1053;-46
2020/12/17 05:26:23;;;;;;;;;;;;;;;16.55;66.71;102044.53;5015422;28;1030;-46
2020/12/17 05:28:50;;;;;;;;;;;;;;;16.56;66.22;102046.25;5015334;28;1898;-46
2020/12/17 05:31:21;;;;;;;;;;;;;;;16.56;65.73;102056.94;5015461;28;1612;-46
2020/12/17 05:33:46;;;;;;;;;;;;;;;16.53;66.97;102049.09;5015658;28;880;-46
2020/12/17 05:36:18;;;;;;;;;;;;;;;16.54;66.11;102050.84;5015268;28;880;-46
2020/12/17 05:38:43;;;;;;;;;;;;;;;16.49;67.06;102057.31;5015535;28;774;-46
2020/12/17 05:41:09;;;;;;;;;;;;;;;16.49;66.95;102040.41;5015377;28;782;-46
2020/12/17 05:43:34;;;;;;;;;;;;;;;16.51;67.19;102041.16;5015501;28;801;-46
2020/12/17 05:46:00;;;;;;;;;;;;;;;16.50;66.24;102058.16;5015079;28;1484;-46
2020/12/17 05:48:25;;;;;;;;;;;;;;;16.47;66.45;102047.63;5014182;28;1887;-46
2020/12/17 05:50:51;;;;;;;;;;;;;;;16.44;67.19;102056.69;5015290;28;920;-46
2020/12/17 05:53:16;;;;;;;;;;;;;;;16.44;66.90;102051.34;5014943;28;861;-46
2020/12/17 05:55:43;;;;;;;;;;;;;;;16.44;66.19;102053.16;5015255;28;810;-46
2020/12/17 05:58:09;;;;;;;;;;;;;;;16.46;66.95;102056.59;5014846;28;846;-46
2020/12/17 06:00:34;;;;;;;;;;;;;;;16.41;67.20;102056.88;5014845;28;1501;-46
2020/12/17 06:02:59;;;;;;;;;;;;;;;16.40;66.55;102056.97;5013419;28;1552;-47
2020/12/17 06:05:27;;;;;;;;;;;;;;;16.42;66.25;102076.41;5014459;28;1566;-46
2020/12/17 06:07:57;;;;;;;;;;;;;;;16.41;66.92;102064.00;5014576;28;1026;-45
2020/12/17 06:10:29;;;;;;;;;;;;;;;16.43;66.34;102086.13;5014572;28;1906;-46
2020/12/17 06:12:55;;;;;;;;;;;;;;;16.42;66.49;102068.41;5014770;28;1544;-46
2020/12/17 06:15:25;;;;;;;;;;;;;;;16.38;67.02;102064.19;5014562;28;1689;-46
2020/12/17 06:17:51;;;;;;;;;;;;;;;16.45;66.43;102081.56;5014808;28;897;-46
2020/12/17 06:20:17;;;;;;;;;;;;;;;16.42;66.57;102073.75;5014806;28;785;-47
2020/12/17 06:22:52;;;;;;;;;;;;;;;16.43;66.97;102072.78;5014631;28;1505;-46
2020/12/17 06:25:19;;;;;;;;;;;;;;;16.41;66.65;102078.25;5014754;28;816;-46
2020/12/17 06:27:48;;;;;;;;;;;;;;;16.42;66.63;102093.28;5014168;28;1520;-47
2020/12/17 06:30:15;;;;;;;;;;;;;;;16.41;65.87;102077.34;5014065;28;1893;-46
2020/12/17 06:32:40;;;;;;;;;;;;;;;16.38;67.09;102078.41;5014136;28;1512;-46
2020/12/17 06:35:29;;;;;;;;;;;;;;;16.40;67.13;102097.00;5014548;28;853;-46
2020/12/17 06:37:57;;;;;;;;;;;;;;;16.35;66.97;102081.22;5004320;28;1298;-46
2020/12/17 06:40:27;;;;;;;;;;;;;;;16.40;66.55;102094.34;5014217;28;793;-46
2020/12/17 06:42:52;;;;;;;;;;;;;;;16.39;66.32;102096.13;5014127;28;1466;-46
2020/12/17 06:45:25;;;;;;;;;;;;;;;16.38;66.17;102090.88;5014505;28;1717;-46
2020/12/17 06:47:51;;;;;;;;;;;;;;;16.35;67.14;102088.38;4994462;28;1031;-46
2020/12/17 06:50:23;;;;;;;;;;;;;;;16.37;67.10;102105.16;4994674;28;1878;-47
2020/12/17 06:53:05;;;;;;;;;;;;;;;16.38;66.72;102099.75;4994365;28;913;-46
2020/12/17 06:55:50;;;;;;;;;;;;;;;16.36;67.10;102082.09;4994304;28;1588;-47
2020/12/17 06:58:19;;;;;;;;;;;;;;;16.35;66.37;102102.59;5002981;28;1528;-47
2020/12/17 07:00:45;;;;;;;;;;;;;;;16.32;66.79;102108.09;5013583;28;1230;-46
2020/12/17 07:03:10;;;;;;;;;;;;;;;16.30;66.87;102110.84;5013864;28;845;-46
2020/12/17 07:05:38;;;;;;;;;;;;;;;16.28;68.14;102102.06;5013826;28;963;-46
2020/12/17 07:08:03;;;;;;;;;;;;;;;16.35;66.80;102117.75;5013623;28;1910;-46
2020/12/17 07:10:30;;;;;;;;;;;;;;;16.32;67.94;102108.09;5014237;28;1035;-46
2020/12/17 07:12:55;;;;;;;;;;;;;;;16.35;69.38;102123.09;5013140;28;1552;-46
2020/12/17 07:15:30;;;;;;;;;;;;;;;16.36;69.14;102116.81;5014048;28;770;-46
2020/12/17 07:18:15;;;;;;;;;;;;;;;16.34;69.65;102116.03;5012604;28;1548;-46
2020/12/17 07:20:42;;;;;;;;;;;;;;;16.38;70.47;102128.25;4996724;28;1644;-46
2020/12/17 07:23:09;;;;;;;;;;;;;;;16.38;69.18;102115.78;5013839;28;864;-47
2020/12/17 07:25:34;;;;;;;;;;;;;;;16.38;69.62;102120.25;5012996;28;1258;-47
2020/12/17 07:27:59;;;;;;;;;;;;;;;16.35;70.41;102113.25;5013639;28;862;-46
2020/12/17 07:30:25;;;;;;;;;;;;;;;16.36;69.07;102112.31;5013228;28;1906;-47
2020/12/17 07:32:50;;;;;;;;;;;;;;;16.38;69.44;102117.59;5012812;28;1709;-46
2020/12/17 07:35:17;;;;;;;;;;;;;;;16.38;69.57;102122.94;5013565;28;912;-46
2020/12/17 07:37:45;;;;;;;;;;;;;;;16.32;68.99;102112.59;5013529;28;885;-46
2020/12/17 07:40:41;;;;;;;;;;;;;;;16.32;69.33;102113.44;5006231;28;1730;-47
2020/12/17 07:43:07;;;;;;;;;;;;;;;16.31;69.06;102117.03;5005935;28;1554;-46
2020/12/17 07:45:43;;;;;;;;;;;;;;;16.35;68.12;102120.41;5007212;28;1490;-45
2020/12/17 07:48:27;;;;;;;;;;;;;;;16.31;69.29;102117.03;5027653;28;1894;-46
2020/12/17 07:50:52;;;;;;;;;;;;;;;16.37;69.09;102118.53;5014090;28;1594;-47
2020/12/17 07:53:24;;;;;;;;;;;;;;;16.36;70.28;102127.50;5008432;28;1647;-46
2020/12/17 07:55:53;;;;;;;;;;;;;;;16.34;70.15;102111.56;5009765;28;806;-46
2020/12/17 07:58:18;;;;;;;;;;;;;;;16.41;68.92;102128.97;5006673;28;1885;-47
2020/12/17 08:00:44;;;;;;;;;;;;;;;16.38;69.36;102123.78;4990331;28;861;-46
2020/12/17 08:03:10;;;;;;;;;;;;;;;16.30;68.96;102137.53;4990077;28;1544;-47
2020/12/17 08:05:35;;;;;;;;;;;;;;;16.30;68.68;102137.53;5005972;28;1116;-47
2020/12/17 08:08:00;;;;;;;;;;;;;;;16.27;67.99;102121.72;5007786;28;1582;-46
2020/12/17 08:10:26;;;;;;;;;;;;;;;16.29;68.36;102129.63;5009630;28;1906;-47
2020/12/17 08:12:52;;;;;;;;;;;;;;;16.20;67.91;102120.31;5010953;28;1602;-47
2020/12/17 08:15:20;;;;;;;;;;;;;;;16.21;67.19;102127.38;5013446;28;1603;-47
2020/12/17 08:17:47;;;;;;;;;;;;;;;16.19;67.21;102126.59;5013000;28;1214;-46
2020/12/17 08:20:15;;;;;;;;;;;;;;;16.18;67.44;102116.88;5013221;28;1414;-46
2020/12/17 08:22:41;;;;;;;;;;;;;;;16.23;67.37;102120.13;5012763;28;1202;-46
2020/12/17 08:25:06;;;;;;;;;;;;;;;16.27;67.75;102116.38;5013494;28;841;-47
2020/12/17 08:27:32;;;;;;;;;;;;;;;16.31;67.52;102127.72;5013067;28;846;-46
2020/12/17 08:29:57;;;;;;;;;;;;;;;16.36;68.79;102124.81;5007948;28;1957;-47
2020/12/17 08:32:23;;;;;;;;;;;;;;;16.55;66.91;102136.19;5011287;28;1596;-48
2020/12/17 08:34:55;;;;;;;;;;;;;;;16.76;66.96;102119.91;4995055;28;1336;-48
2020/12/17 08:37:21;;;;;;;;;;;;;;;17.04;66.51;102117.38;4649335;28;10000036;-49
2020/12/17 08:39:56;;;;;;;;;;;;;;;17.29;65.70;102126.66;4998993;28;1674;-49
2020/12/17 08:42:22;;;;;;;;;;;;;;;17.45;65.24;102122.09;4991256;28;1590;-48
2020/12/17 08:44:48;;;;;;;;;;;;;;;17.58;65.11;102124.03;4999211;28;1850;-47
2020/12/17 08:47:13;;;;;;;;;;;;;;;17.70;65.73;102132.16;4993106;28;1837;-48
2020/12/17 08:49:39;;;;;;;;;;;;;;;17.76;65.73;102120.22;4994785;28;1926;-47
2020/12/17 08:52:04;;;;;;;;;;;;;;;17.93;65.09;102123.72;4992833;28;1904;-47
2020/12/17 08:54:32;;;;;;;;;;;;;;;18.05;64.89;102112.25;4991374;28;1496;-49
2020/12/17 08:56:57;;;;;;;;;;;;;;;18.18;64.41;102115.00;4993419;28;1589;-48
2020/12/17 08:59:22;;;;;;;;;;;;;;;18.33;63.99;102118.53;4994493;28;1582;-47
2020/12/17 09:01:48;;;;;;;;;;;;;;;18.40;64.50;102103.75;4995321;28;1530;-47
2020/12/17 09:04:14;;;;;;;;;;;;;;;18.51;64.68;102108.44;4989779;28;1791;-48
2020/12/17 09:06:39;;;;;;;;;;;;;;;18.58;64.47;102105.28;4987922;28;1295;-47
2020/12/17 09:09:12;;;;;;;;;;;;;;;18.74;63.53;102105.13;4991519;28;1994;-48
2020/12/17 09:11:37;;;;;;;;;;;;;;;18.98;63.36;102110.72;5004101;28;1650;-48
2020/12/17 09:14:04;;;;;;;;;;;;;;;19.14;62.49;102093.56;5005539;28;1608;-48
2020/12/17 09:16:30;;;;;;;;;;;;;;;19.18;62.73;102108.47;5010809;28;1793;-47
2020/12/17 09:18:56;;;;;;;;;;;;;;;19.50;62.52;102100.03;5010834;28;1739;-47
2020/12/17 09:21:22;;;;;;;;;;;;;;;19.37;62.93;102102.72;5014255;28;1798;-46
2020/12/17 09:23:54;;;;;;;;;;;;;;;19.17;61.22;102106.78;5003833;28;1654;-47
2020/12/17 09:26:19;;;;;;;;;;;;;;;19.18;62.91;102116.53;5011516;28;1231;-46
2020/12/17 09:28:48;;;;;;;;;;;;;;;19.09;63.54;102099.25;5011900;28;1980;-48
2020/12/17 09:31:23;;;;;;;;;;;;;;;19.03;63.84;102094.31;5011525;28;1757;-48
2020/12/17 09:33:49;;;;;;;;;;;;;;;19.06;63.09;102097.63;5011513;28;1708;-47
2020/12/17 09:36:15;;;;;;;;;;;;;;;19.12;63.35;102095.50;5011181;28;1616;-47
2020/12/17 09:38:40;;;;;;;;;;;;;;;19.05;63.42;102078.97;5010372;28;1810;-47
2020/12/17 09:41:05;;;;;;;;;;;;;;;19.03;63.56;102079.06;5010795;28;1593;-47
2020/12/17 09:43:31;;;;;;;;;;;;;;;19.02;63.85;102090.78;5010641;28;1784;-47
2020/12/17 09:45:56;;;;;;;;;;;;;;;19.08;63.54;102087.66;5011831;28;1770;-49
2020/12/17 09:48:23;;;;;;;;;;;;;;;18.96;64.36;102096.53;5011388;28;2007;-48
2020/12/17 09:50:52;;;;;;;;;;;;;;;18.81;64.56;102098.41;5010021;28;1754;-48
2020/12/17 09:53:19;;;;;;;;;;;;;;;18.71;65.02;102093.75;5009244;28;1587;-49
2020/12/17 09:55:44;;;;;;;;;;;;;;;18.70;64.94;102098.22;4993321;28;1710;-49
2020/12/17 09:58:09;;;;;;;;;;;;;;;18.68;65.02;102090.31;5011468;28;1818;-49
2020/12/17 10:00:34;;;;;;;;;;;;;;;18.64;64.70;102094.16;5010697;28;2066;-49
2020/12/17 10:03:00;;;;;;;;;;;;;;;18.66;65.04;102099.38;5010494;28;1768;-48
2020/12/17 10:05:25;;;;;;;;;;;;;;;18.65;64.94;102103.88;5010679;28;2191;-50
2020/12/17 10:07:50;;;;;;;;;;;;;;;18.50;65.83;102104.88;5010329;28;1491;-47
2020/12/17 10:10:15;;;;;;;;;;;;;;;18.44;65.63;102092.78;5010329;28;1969;-49
2020/12/17 10:12:41;;;;;;;;;;;;;;;18.38;65.68;102089.63;5010272;28;1564;-50
2020/12/17 10:15:06;;;;;;;;;;;;;;;18.33;66.65;102105.13;5010673;28;1305;-48
2020/12/17 10:17:32;;;;;;;;;;;;;;;18.32;66.03;102100.72;5010864;28;1260;-48
2020/12/17 10:19:57;;;;;;;;;;;;;;;18.36;65.86;102075.47;5010416;28;1665;-49
2020/12/17 10:22:22;;;;;;;;;;;;;;;18.31;66.29;102094.50;5011085;28;877;-49
2020/12/17 10:24:47;;;;;;;;;;;;;;;18.34;65.08;102088.09;5010270;28;1828;-47
2020/12/17 10:27:12;;;;;;;;;;;;;;;18.41;64.92;102087.59;5001060;28;1688;-49
2020/12/17 10:29:38;;;;;;;;;;;;;;;18.45;65.69;102096.31;5009776;28;1889;-50
2020/12/17 10:32:03;;;;;;;;;;;;;;;18.44;64.67;102086.53;5010442;28;1815;-48
2020/12/17 10:34:28;;;;;;;;;;;;;;;18.32;66.40;102079.28;5009523;28;1567;-49
2020/12/17 10:36:53;;;;;;;;;;;;;;;18.27;65.46;102075.09;5009494;28;1457;-49
2020/12/17 10:39:19;;;;;;;;;;;;;;;18.33;65.60;102070.31;5007814;28;10846;-49
2020/12/17 10:41:44;;;;;;;;;;;;;;;18.22;66.00;102074.56;5010216;28;1454;-49
2020/12/17 10:44:10;;;;;;;;;;;;;;;18.20;65.58;102071.09;5010404;28;1266;-48
2020/12/17 10:46:36;;;;;;;;;;;;;;;18.17;65.82;102071.31;5010708;28;813;-49
2020/12/17 10:49:02;;;;;;;;;;;;;;;18.13;65.75;102069.78;5010647;28;1918;-49
2020/12/17 10:51:27;;;;;;;;;;;;;;;18.05;65.32;102064.91;5010746;28;816;-49
2020/12/17 10:53:52;;;;;;;;;;;;;;;18.00;66.39;102068.84;5009712;28;1276;-48
2020/12/17 10:56:18;;;;;;;;;;;;;;;17.95;66.28;102071.81;5009292;28;1607;-48
2020/12/17 10:58:43;;;;;;;;;;;;;;;17.88;66.04;102079.34;5010071;28;1277;-49
2020/12/17 11:01:08;;;;;;;;;;;;;;;17.86;65.73;102069.69;5010570;28;842;-48
2020/12/17 11:03:34;;;;;;;;;;;;;;;17.91;66.40;102064.94;5010496;28;781;-48
2020/12/17 11:05:59;;;;;;;;;;;;;;;18.01;66.12;102062.53;5010531;28;881;-49
2020/12/17 11:08:28;;;;;;;;;;;;;;;18.14;66.95;102068.81;5009830;28;1974;-49
2020/12/17 11:10:53;;;;;;;;;;;;;;;18.23;66.42;102056.66;5009012;28;1899;-49
2020/12/17 11:13:18;;;;;;;;;;;;;;;18.28;65.90;102059.88;5009768;28;1393;-48
2020/12/17 11:15:44;;;;;;;;;;;;;;;18.32;66.40;102064.09;5010167;28;976;-48
2020/12/17 11:18:09;;;;;;;;;;;;;;;18.35;66.56;102071.94;5009951;28;1784;-48
2020/12/17 11:20:35;;;;;;;;;;;;;;;18.43;65.70;102066.94;5009902;28;1764;-48
2020/12/17 11:23:00;;;;;;;;;;;;;;;18.45;65.47;102067.69;5009919;28;1229;-48
2020/12/17 11:25:26;;;;;;;;;;;;;;;18.44;65.73;102073.13;5009589;28;1832;-49
2020/12/17 11:27:51;;;;;;;;;;;;;;;18.52;65.42;102054.75;5010097;28;845;-48
2020/12/17 11:30:16;;;;;;;;;;;;;;;18.45;66.21;102053.44;5009694;28;1961;-47
2020/12/17 11:32:42;;;;;;;;;;;;;;;18.42;66.22;102059.88;5009816;28;1903;-48
2020/12/17 11:35:07;;;;;;;;;;;;;;;18.37;66.39;102045.06;5009968;28;897;-48
2020/12/17 11:37:35;;;;;;;;;;;;;;;18.39;65.99;102045.81;5009876;28;901;-48
2020/12/17 11:40:01;;;;;;;;;;;;;;;18.44;66.43;102059.75;5009581;28;1854;-49
2020/12/17 11:42:26;;;;;;;;;;;;;;;18.46;66.17;102055.16;5009746;28;916;-48
2020/12/17 11:44:52;;;;;;;;;;;;;;;18.46;66.35;102055.16;5009594;28;1858;-48
2020/12/17 11:47:18;;;;;;;;;;;;;;;18.49;66.44;102058.50;5012850;28;1266;-48
2020/12/17 11:49:43;;;;;;;;;;;;;;;18.48;66.46;102061.25;5013523;28;1949;-48
2020/12/17 11:52:09;;;;;;;;;;;;;;;18.53;66.62;102060.97;5013125;28;1814;-49
2020/12/17 11:54:34;;;;;;;;;;;;;;;18.51;66.24;102050.38;5013348;28;1862;-48
2020/12/17 11:56:59;;;;;;;;;;;;;;;18.55;66.53;102048.34;5013447;28;892;-48
2020/12/17 11:59:24;;;;;;;;;;;;;;;18.55;66.35;102048.34;5013852;28;856;-48
2020/12/17 12:01:50;;;;;;;;;;;;;;;18.57;66.45;102054.47;5013246;28;1849;-49
2020/12/17 12:04:15;;;;;;;;;;;;;;;18.57;67.53;102047.28;5013337;28;864;-48
2020/12/17 12:06:40;;;;;;;;;;;;;;;18.64;67.01;102056.63;5013262;28;909;-48
2020/12/17 12:09:07;;;;;;;;;;;;;;;18.64;67.28;102053.06;5012051;28;1998;-49
2020/12/17 12:11:32;;;;;;;;;;;;;;;18.64;67.17;102053.97;5013438;28;1474;-49
2020/12/17 12:13:57;;;;;;;;;;;;;;;18.65;67.55;102054.81;5013212;28;1806;-48
2020/12/17 12:16:23;;;;;;;;;;;;;;;18.63;67.11;102051.38;5013132;28;956;-48
2020/12/17 12:18:48;;;;;;;;;;;;;;;18.83;66.33;102066.16;5013004;28;1866;-48
2020/12/17 12:21:14;;;;;;;;;;;;;;;18.69;66.78;102062.53;5013175;28;1800;-48
2020/12/17 12:23:42;;;;;;;;;;;;;;;18.63;67.09;102038.81;5012738;28;1745;-48
2020/12/17 12:26:08;;;;;;;;;;;;;;;18.60;66.93;102063.16;5012990;28;1789;-48
2020/12/17 12:28:33;;;;;;;;;;;;;;;18.58;67.11;102053.50;5012189;28;1980;-48
2020/12/17 12:30:59;;;;;;;;;;;;;;;18.53;67.03;102063.66;5012895;28;1505;-48
2020/12/17 12:33:24;;;;;;;;;;;;;;;18.73;66.47;102062.34;5013112;28;821;-48
2020/12/17 12:35:49;;;;;;;;;;;;;;;18.67;66.86;102075.16;5013025;28;802;-48
2020/12/17 12:38:14;;;;;;;;;;;;;;;18.56;66.83;102067.00;5011863;28;1882;-48
2020/12/17 12:40:40;;;;;;;;;;;;;;;18.55;66.86;102054.56;5013159;28;827;-49
2020/12/17 12:43:05;;;;;;;;;;;;;;;18.70;66.57;102068.75;5013135;28;802;-47
2020/12/17 12:45:30;;;;;;;;;;;;;;;18.63;66.75;102064.78;5012941;28;806;-48